sensor_id;sensor_type;location;lat;lon;timestamp;P1;durP1;ratioP1;P2;durP2;ratioP2
74375;SDS011;62812;55.188;61.302;2022-12-04T00:01:45;4.10;;;1.23;;
74375;SDS011;62812;55.188;61.302;2022-12-04T00:04:13;8.15;;;3.63;;
74375;SDS011;62812;55.188;61.302;2022-12-04T00:06:39;13.48;;;11.40;;
74375;SDS011;62812;55.188;61.302;2022-12-04T00:09:06;24.60;;;21.38;;
74375;SDS011;62812;55.188;61.302;2022-12-04T00:11:33;5.55;;;1.40;;
74375;SDS011;62812;55.188;61.302;2022-12-04T00:14:00;5.00;;;2.13;;
74375;SDS011;62812;55.188;61.302;2022-12-04T00:16:27;11.18;;;9.13;;
74375;SDS011;62812;55.188;61.302;2022-12-04T00:18:54;18.80;;;16.75;;
74375;SDS011;62812;55.188;61.302;2022-12-04T00:21:23;4.53;;;1.40;;
74375;SDS011;62812;55.188;61.302;2022-12-04T00:23:50;3.63;;;1.98;;
74375;SDS011;62812;55.188;61.302;2022-12-04T00:26:18;10.73;;;8.45;;
74375;SDS011;62812;55.188;61.302;2022-12-04T00:28:46;16.88;;;13.38;;
74375;SDS011;62812;55.188;61.302;2022-12-04T00:31:14;27.17;;;21.38;;
74375;SDS011;62812;55.188;61.302;2022-12-04T00:33:42;31.63;;;25.42;;
74375;SDS011;62812;55.188;61.302;2022-12-04T00:36:09;29.20;;;24.98;;
74375;SDS011;62812;55.188;61.302;2022-12-04T00:38:38;5.78;;;1.40;;
74375;SDS011;62812;55.188;61.302;2022-12-04T00:41:06;5.53;;;1.75;;
74375;SDS011;62812;55.188;61.302;2022-12-04T00:43:33;8.18;;;6.93;;
74375;SDS011;62812;55.188;61.302;2022-12-04T00:46:00;15.48;;;13.82;;
74375;SDS011;62812;55.188;61.302;2022-12-04T00:48:26;20.48;;;17.95;;
74375;SDS011;62812;55.188;61.302;2022-12-04T00:50:53;5.25;;;1.45;;
74375;SDS011;62812;55.188;61.302;2022-12-04T00:53:20;3.03;;;1.33;;
74375;SDS011;62812;55.188;61.302;2022-12-04T00:55:48;6.75;;;5.47;;
74375;SDS011;62812;55.188;61.302;2022-12-04T00:58:14;13.52;;;11.30;;
74375;SDS011;62812;55.188;61.302;2022-12-04T01:00:41;17.30;;;14.65;;
74375;SDS011;62812;55.188;61.302;2022-12-04T01:03:08;20.92;;;17.85;;
74375;SDS011;62812;55.188;61.302;2022-12-04T01:05:37;29.90;;;23.50;;
74375;SDS011;62812;55.188;61.302;2022-12-04T01:08:04;31.42;;;24.65;;
74375;SDS011;62812;55.188;61.302;2022-12-04T01:10:31;26.80;;;22.85;;
74375;SDS011;62812;55.188;61.302;2022-12-04T01:12:59;32.10;;;25.35;;
74375;SDS011;62812;55.188;61.302;2022-12-04T01:15:26;37.28;;;26.40;;
74375;SDS011;62812;55.188;61.302;2022-12-04T01:17:52;32.25;;;26.13;;
74375;SDS011;62812;55.188;61.302;2022-12-04T01:20:18;34.88;;;27.20;;
74375;SDS011;62812;55.188;61.302;2022-12-04T01:22:45;6.87;;;1.37;;
74375;SDS011;62812;55.188;61.302;2022-12-04T01:25:12;2.90;;;1.63;;
74375;SDS011;62812;55.188;61.302;2022-12-04T01:27:38;6.32;;;5.57;;
74375;SDS011;62812;55.188;61.302;2022-12-04T01:30:06;10.60;;;9.35;;
74375;SDS011;62812;55.188;61.302;2022-12-04T01:32:34;20.27;;;16.98;;
74375;SDS011;62812;55.188;61.302;2022-12-04T01:35:00;26.08;;;20.95;;
74375;SDS011;62812;55.188;61.302;2022-12-04T01:37:28;23.98;;;21.00;;
74375;SDS011;62812;55.188;61.302;2022-12-04T01:39:55;24.15;;;20.77;;
74375;SDS011;62812;55.188;61.302;2022-12-04T01:42:22;30.20;;;24.00;;
74375;SDS011;62812;55.188;61.302;2022-12-04T01:48:00;37.05;;;29.65;;
74375;SDS011;62812;55.188;61.302;2022-12-04T01:50:32;33.55;;;27.02;;
74375;SDS011;62812;55.188;61.302;2022-12-04T01:52:58;31.40;;;26.50;;
74375;SDS011;62812;55.188;61.302;2022-12-04T01:55:25;31.42;;;25.52;;
74375;SDS011;62812;55.188;61.302;2022-12-04T01:57:51;29.42;;;25.10;;
74375;SDS011;62812;55.188;61.302;2022-12-04T02:00:18;5.75;;;1.60;;
74375;SDS011;62812;55.188;61.302;2022-12-04T02:02:46;6.88;;;1.65;;
74375;SDS011;62812;55.188;61.302;2022-12-04T02:05:14;8.55;;;7.50;;
74375;SDS011;62812;55.188;61.302;2022-12-04T02:07:42;15.27;;;10.45;;
74375;SDS011;62812;55.188;61.302;2022-12-04T02:10:11;15.98;;;13.90;;
74375;SDS011;62812;55.188;61.302;2022-12-04T02:12:40;20.40;;;17.02;;
74375;SDS011;62812;55.188;61.302;2022-12-04T02:15:14;26.95;;;22.45;;
74375;SDS011;62812;55.188;61.302;2022-12-04T02:17:50;30.05;;;24.40;;
74375;SDS011;62812;55.188;61.302;2022-12-04T02:20:27;4.25;;;1.40;;
74375;SDS011;62812;55.188;61.302;2022-12-04T02:25:47;9.68;;;7.97;;
74375;SDS011;62812;55.188;61.302;2022-12-04T02:28:24;13.60;;;12.18;;
74375;SDS011;62812;55.188;61.302;2022-12-04T02:30:59;18.75;;;15.68;;
74375;SDS011;62812;55.188;61.302;2022-12-04T02:33:27;19.58;;;16.48;;
74375;SDS011;62812;55.188;61.302;2022-12-04T02:35:58;21.48;;;18.42;;
74375;SDS011;62812;55.188;61.302;2022-12-04T02:38:31;28.40;;;22.38;;
74375;SDS011;62812;55.188;61.302;2022-12-04T02:41:03;4.75;;;1.23;;
74375;SDS011;62812;55.188;61.302;2022-12-04T02:43:36;1.50;;;0.75;;
74375;SDS011;62812;55.188;61.302;2022-12-04T02:46:08;6.78;;;5.38;;
74375;SDS011;62812;55.188;61.302;2022-12-04T02:48:39;4.10;;;1.20;;
74375;SDS011;62812;55.188;61.302;2022-12-04T02:51:08;2.30;;;1.00;;
74375;SDS011;62812;55.188;61.302;2022-12-04T02:53:39;6.60;;;3.35;;
74375;SDS011;62812;55.188;61.302;2022-12-04T02:56:11;9.73;;;7.50;;
74375;SDS011;62812;55.188;61.302;2022-12-04T02:58:41;4.60;;;1.38;;
74375;SDS011;62812;55.188;61.302;2022-12-04T03:01:12;1.20;;;0.47;;
74375;SDS011;62812;55.188;61.302;2022-12-04T03:03:45;5.20;;;3.33;;
74375;SDS011;62812;55.188;61.302;2022-12-04T03:06:17;10.40;;;8.55;;
74375;SDS011;62812;55.188;61.302;2022-12-04T03:08:46;11.85;;;9.88;;
74375;SDS011;62812;55.188;61.302;2022-12-04T03:11:17;15.10;;;12.85;;
74375;SDS011;62812;55.188;61.302;2022-12-04T03:13:46;4.77;;;1.70;;
74375;SDS011;62812;55.188;61.302;2022-12-04T03:16:17;3.42;;;1.02;;
74375;SDS011;62812;55.188;61.302;2022-12-04T03:18:49;5.35;;;3.38;;
74375;SDS011;62812;55.188;61.302;2022-12-04T03:21:19;7.45;;;6.13;;
74375;SDS011;62812;55.188;61.302;2022-12-04T03:26:23;25.95;;;20.52;;
74375;SDS011;62812;55.188;61.302;2022-12-04T03:28:54;22.35;;;19.95;;
74375;SDS011;62812;55.188;61.302;2022-12-04T03:31:26;4.03;;;1.30;;
74375;SDS011;62812;55.188;61.302;2022-12-04T03:34:02;4.00;;;1.50;;
74375;SDS011;62812;55.188;61.302;2022-12-04T03:36:35;7.13;;;5.30;;
74375;SDS011;62812;55.188;61.302;2022-12-04T03:39:06;11.82;;;9.10;;
74375;SDS011;62812;55.188;61.302;2022-12-04T03:41:41;13.25;;;11.30;;
74375;SDS011;62812;55.188;61.302;2022-12-04T03:44:18;20.10;;;16.73;;
74375;SDS011;62812;55.188;61.302;2022-12-04T03:46:49;4.35;;;1.48;;
74375;SDS011;62812;55.188;61.302;2022-12-04T03:49:20;4.30;;;1.27;;
74375;SDS011;62812;55.188;61.302;2022-12-04T03:51:52;6.40;;;3.60;;
74375;SDS011;62812;55.188;61.302;2022-12-04T03:54:24;5.70;;;1.80;;
74375;SDS011;62812;55.188;61.302;2022-12-04T03:56:54;3.53;;;1.05;;
74375;SDS011;62812;55.188;61.302;2022-12-04T03:59:27;3.47;;;1.77;;
74375;SDS011;62812;55.188;61.302;2022-12-04T04:01:59;6.88;;;4.63;;
74375;SDS011;62812;55.188;61.302;2022-12-04T04:04:30;6.18;;;1.52;;
74375;SDS011;62812;55.188;61.302;2022-12-04T04:07:00;2.40;;;0.70;;
74375;SDS011;62812;55.188;61.302;2022-12-04T04:09:33;3.97;;;1.85;;
74375;SDS011;62812;55.188;61.302;2022-12-04T04:12:04;5.07;;;3.97;;
74375;SDS011;62812;55.188;61.302;2022-12-04T04:14:36;6.57;;;5.43;;
74375;SDS011;62812;55.188;61.302;2022-12-04T04:17:26;14.75;;;12.38;;
74375;SDS011;62812;55.188;61.302;2022-12-04T04:20:14;16.92;;;14.48;;
74375;SDS011;62812;55.188;61.302;2022-12-04T04:23:02;17.70;;;14.60;;
74375;SDS011;62812;55.188;61.302;2022-12-04T04:25:50;18.98;;;16.25;;
74375;SDS011;62812;55.188;61.302;2022-12-04T04:28:25;20.55;;;17.95;;
74375;SDS011;62812;55.188;61.302;2022-12-04T04:30:56;18.05;;;15.30;;
74375;SDS011;62812;55.188;61.302;2022-12-04T04:33:29;22.02;;;18.67;;
74375;SDS011;62812;55.188;61.302;2022-12-04T04:35:58;5.88;;;1.60;;
74375;SDS011;62812;55.188;61.302;2022-12-04T04:38:35;2.85;;;1.08;;
74375;SDS011;62812;55.188;61.302;2022-12-04T04:41:07;4.43;;;2.95;;
74375;SDS011;62812;55.188;61.302;2022-12-04T04:43:38;9.90;;;7.05;;
74375;SDS011;62812;55.188;61.302;2022-12-04T04:46:11;9.15;;;7.57;;
74375;SDS011;62812;55.188;61.302;2022-12-04T04:48:43;14.52;;;11.35;;
74375;SDS011;62812;55.188;61.302;2022-12-04T04:51:13;13.23;;;11.18;;
74375;SDS011;62812;55.188;61.302;2022-12-04T04:53:43;6.23;;;1.70;;
74375;SDS011;62812;55.188;61.302;2022-12-04T04:56:12;4.25;;;1.52;;
74375;SDS011;62812;55.188;61.302;2022-12-04T04:58:40;3.45;;;1.75;;
74375;SDS011;62812;55.188;61.302;2022-12-04T05:01:07;7.63;;;4.00;;
74375;SDS011;62812;55.188;61.302;2022-12-04T05:06:03;13.70;;;12.25;;
74375;SDS011;62812;55.188;61.302;2022-12-04T05:08:31;16.25;;;13.50;;
74375;SDS011;62812;55.188;61.302;2022-12-04T05:10:57;12.68;;;10.38;;
74375;SDS011;62812;55.188;61.302;2022-12-04T05:13:24;12.52;;;10.88;;
74375;SDS011;62812;55.188;61.302;2022-12-04T05:15:55;12.05;;;10.15;;
74375;SDS011;62812;55.188;61.302;2022-12-04T05:20:50;22.05;;;19.02;;
74375;SDS011;62812;55.188;61.302;2022-12-04T05:23:17;6.30;;;1.83;;
74375;SDS011;62812;55.188;61.302;2022-12-04T05:25:43;2.63;;;0.73;;
74375;SDS011;62812;55.188;61.302;2022-12-04T05:28:10;4.65;;;2.00;;
74375;SDS011;62812;55.188;61.302;2022-12-04T05:30:36;7.95;;;2.22;;
74375;SDS011;62812;55.188;61.302;2022-12-04T05:33:03;5.78;;;1.60;;
74375;SDS011;62812;55.188;61.302;2022-12-04T05:35:31;5.03;;;1.85;;
74375;SDS011;62812;55.188;61.302;2022-12-04T05:37:57;5.68;;;3.40;;
74375;SDS011;62812;55.188;61.302;2022-12-04T05:40:24;5.47;;;3.58;;
74375;SDS011;62812;55.188;61.302;2022-12-04T05:42:50;7.75;;;4.50;;
74375;SDS011;62812;55.188;61.302;2022-12-04T05:45:17;8.88;;;7.55;;
74375;SDS011;62812;55.188;61.302;2022-12-04T05:47:43;7.70;;;6.72;;
74375;SDS011;62812;55.188;61.302;2022-12-04T05:50:11;6.20;;;1.92;;
74375;SDS011;62812;55.188;61.302;2022-12-04T05:52:39;4.68;;;1.70;;
74375;SDS011;62812;55.188;61.302;2022-12-04T05:55:06;4.32;;;1.75;;
74375;SDS011;62812;55.188;61.302;2022-12-04T05:57:33;5.75;;;3.60;;
74375;SDS011;62812;55.188;61.302;2022-12-04T05:59:59;5.03;;;3.63;;
74375;SDS011;62812;55.188;61.302;2022-12-04T06:02:26;8.43;;;7.13;;
74375;SDS011;62812;55.188;61.302;2022-12-04T06:04:52;6.78;;;5.80;;
74375;SDS011;62812;55.188;61.302;2022-12-04T06:07:19;8.20;;;7.30;;
74375;SDS011;62812;55.188;61.302;2022-12-04T06:09:46;6.43;;;2.10;;
74375;SDS011;62812;55.188;61.302;2022-12-04T06:12:13;5.90;;;1.42;;
74375;SDS011;62812;55.188;61.302;2022-12-04T06:14:39;3.65;;;1.33;;
74375;SDS011;62812;55.188;61.302;2022-12-04T06:17:06;4.40;;;2.50;;
74375;SDS011;62812;55.188;61.302;2022-12-04T06:19:32;8.93;;;4.85;;
74375;SDS011;62812;55.188;61.302;2022-12-04T06:21:59;8.85;;;6.72;;
74375;SDS011;62812;55.188;61.302;2022-12-04T06:24:25;9.63;;;6.18;;
74375;SDS011;62812;55.188;61.302;2022-12-04T06:26:55;11.25;;;6.70;;
74375;SDS011;62812;55.188;61.302;2022-12-04T06:29:23;7.80;;;2.85;;
74375;SDS011;62812;55.188;61.302;2022-12-04T06:31:50;9.70;;;3.10;;
74375;SDS011;62812;55.188;61.302;2022-12-04T06:34:16;6.15;;;1.80;;
74375;SDS011;62812;55.188;61.302;2022-12-04T06:36:45;4.88;;;2.65;;
74375;SDS011;62812;55.188;61.302;2022-12-04T06:39:12;5.72;;;4.38;;
74375;SDS011;62812;55.188;61.302;2022-12-04T06:41:38;7.40;;;4.68;;
74375;SDS011;62812;55.188;61.302;2022-12-04T06:44:06;9.35;;;6.30;;
74375;SDS011;62812;55.188;61.302;2022-12-04T06:46:32;5.95;;;5.38;;
74375;SDS011;62812;55.188;61.302;2022-12-04T06:48:59;10.93;;;7.15;;
74375;SDS011;62812;55.188;61.302;2022-12-04T06:51:27;10.60;;;7.65;;
74375;SDS011;62812;55.188;61.302;2022-12-04T06:53:55;13.63;;;9.25;;
74375;SDS011;62812;55.188;61.302;2022-12-04T06:56:22;14.23;;;9.68;;
74375;SDS011;62812;55.188;61.302;2022-12-04T06:58:51;12.43;;;9.65;;
74375;SDS011;62812;55.188;61.302;2022-12-04T07:01:21;12.63;;;10.05;;
74375;SDS011;62812;55.188;61.302;2022-12-04T07:03:49;16.50;;;11.00;;
74375;SDS011;62812;55.188;61.302;2022-12-04T07:06:16;13.85;;;11.55;;
74375;SDS011;62812;55.188;61.302;2022-12-04T07:08:45;8.20;;;3.10;;
74375;SDS011;62812;55.188;61.302;2022-12-04T07:11:12;8.65;;;1.95;;
74375;SDS011;62812;55.188;61.302;2022-12-04T07:13:40;6.95;;;2.10;;
74375;SDS011;62812;55.188;61.302;2022-12-04T07:16:07;8.48;;;4.60;;
74375;SDS011;62812;55.188;61.302;2022-12-04T07:18:38;8.57;;;4.55;;
74375;SDS011;62812;55.188;61.302;2022-12-04T07:21:06;6.70;;;4.55;;
74375;SDS011;62812;55.188;61.302;2022-12-04T07:23:34;7.35;;;3.00;;
74375;SDS011;62812;55.188;61.302;2022-12-04T07:26:03;5.97;;;2.00;;
74375;SDS011;62812;55.188;61.302;2022-12-04T07:28:30;4.22;;;1.48;;
74375;SDS011;62812;55.188;61.302;2022-12-04T07:30:56;3.28;;;2.17;;
74375;SDS011;62812;55.188;61.302;2022-12-04T07:33:23;6.63;;;4.45;;
74375;SDS011;62812;55.188;61.302;2022-12-04T07:35:55;9.38;;;4.78;;
74375;SDS011;62812;55.188;61.302;2022-12-04T07:38:22;9.25;;;5.30;;
74375;SDS011;62812;55.188;61.302;2022-12-04T07:40:48;9.38;;;5.93;;
74375;SDS011;62812;55.188;61.302;2022-12-04T07:43:15;6.25;;;5.18;;
74375;SDS011;62812;55.188;61.302;2022-12-04T07:45:41;7.97;;;2.80;;
74375;SDS011;62812;55.188;61.302;2022-12-04T07:48:08;8.02;;;2.80;;
74375;SDS011;62812;55.188;61.302;2022-12-04T07:50:34;5.47;;;1.92;;
74375;SDS011;62812;55.188;61.302;2022-12-04T07:53:02;6.60;;;2.47;;
74375;SDS011;62812;55.188;61.302;2022-12-04T07:55:29;7.18;;;3.78;;
74375;SDS011;62812;55.188;61.302;2022-12-04T07:57:55;7.85;;;4.97;;
74375;SDS011;62812;55.188;61.302;2022-12-04T08:00:21;9.73;;;5.95;;
74375;SDS011;62812;55.188;61.302;2022-12-04T08:02:48;12.88;;;5.03;;
74375;SDS011;62812;55.188;61.302;2022-12-04T08:05:15;7.25;;;4.80;;
74375;SDS011;62812;55.188;61.302;2022-12-04T08:07:42;7.57;;;4.70;;
74375;SDS011;62812;55.188;61.302;2022-12-04T08:10:10;5.57;;;3.97;;
74375;SDS011;62812;55.188;61.302;2022-12-04T08:12:36;9.70;;;5.45;;
74375;SDS011;62812;55.188;61.302;2022-12-04T08:15:03;9.90;;;5.15;;
74375;SDS011;62812;55.188;61.302;2022-12-04T08:17:30;6.85;;;4.93;;
74375;SDS011;62812;55.188;61.302;2022-12-04T08:19:57;10.13;;;5.25;;
74375;SDS011;62812;55.188;61.302;2022-12-04T08:22:24;9.73;;;5.72;;
74375;SDS011;62812;55.188;61.302;2022-12-04T08:24:50;11.57;;;7.93;;
74375;SDS011;62812;55.188;61.302;2022-12-04T08:27:18;10.48;;;7.50;;
74375;SDS011;62812;55.188;61.302;2022-12-04T08:29:45;8.20;;;5.47;;
74375;SDS011;62812;55.188;61.302;2022-12-04T08:32:11;9.77;;;7.07;;
74375;SDS011;62812;55.188;61.302;2022-12-04T08:34:37;9.80;;;6.78;;
74375;SDS011;62812;55.188;61.302;2022-12-04T08:37:04;9.15;;;3.30;;
74375;SDS011;62812;55.188;61.302;2022-12-04T08:39:30;5.30;;;2.00;;
74375;SDS011;62812;55.188;61.302;2022-12-04T08:41:57;4.88;;;2.05;;
74375;SDS011;62812;55.188;61.302;2022-12-04T08:44:25;5.85;;;2.33;;
74375;SDS011;62812;55.188;61.302;2022-12-04T08:46:51;9.98;;;2.88;;
74375;SDS011;62812;55.188;61.302;2022-12-04T08:49:18;8.05;;;3.33;;
74375;SDS011;62812;55.188;61.302;2022-12-04T08:51:44;8.73;;;3.45;;
74375;SDS011;62812;55.188;61.302;2022-12-04T08:54:11;6.40;;;2.30;;
74375;SDS011;62812;55.188;61.302;2022-12-04T08:56:38;6.82;;;1.73;;
74375;SDS011;62812;55.188;61.302;2022-12-04T08:59:04;5.47;;;2.15;;
74375;SDS011;62812;55.188;61.302;2022-12-04T09:01:32;4.70;;;1.80;;
74375;SDS011;62812;55.188;61.302;2022-12-04T09:03:59;8.63;;;3.60;;
74375;SDS011;62812;55.188;61.302;2022-12-04T09:06:25;9.75;;;4.05;;
74375;SDS011;62812;55.188;61.302;2022-12-04T09:08:52;8.30;;;4.53;;
74375;SDS011;62812;55.188;61.302;2022-12-04T09:11:20;9.52;;;5.15;;
74375;SDS011;62812;55.188;61.302;2022-12-04T09:13:48;9.52;;;4.82;;
74375;SDS011;62812;55.188;61.302;2022-12-04T09:16:15;8.95;;;4.53;;
74375;SDS011;62812;55.188;61.302;2022-12-04T09:18:44;10.10;;;6.57;;
74375;SDS011;62812;55.188;61.302;2022-12-04T09:21:12;8.05;;;6.60;;
74375;SDS011;62812;55.188;61.302;2022-12-04T09:23:40;11.60;;;5.68;;
74375;SDS011;62812;55.188;61.302;2022-12-04T09:26:15;8.52;;;5.40;;
74375;SDS011;62812;55.188;61.302;2022-12-04T09:28:43;10.90;;;8.30;;
74375;SDS011;62812;55.188;61.302;2022-12-04T09:31:12;13.02;;;8.70;;
74375;SDS011;62812;55.188;61.302;2022-12-04T09:33:39;10.38;;;8.02;;
74375;SDS011;62812;55.188;61.302;2022-12-04T09:36:07;12.25;;;8.07;;
74375;SDS011;62812;55.188;61.302;2022-12-04T09:38:33;6.40;;;5.32;;
74375;SDS011;62812;55.188;61.302;2022-12-04T09:41:01;9.60;;;6.05;;
74375;SDS011;62812;55.188;61.302;2022-12-04T09:43:39;7.78;;;5.85;;
74375;SDS011;62812;55.188;61.302;2022-12-04T09:46:11;6.75;;;4.97;;
74375;SDS011;62812;55.188;61.302;2022-12-04T09:48:43;11.32;;;8.00;;
74375;SDS011;62812;55.188;61.302;2022-12-04T09:51:17;7.10;;;5.05;;
74375;SDS011;62812;55.188;61.302;2022-12-04T09:53:47;7.75;;;6.25;;
74375;SDS011;62812;55.188;61.302;2022-12-04T09:56:19;7.18;;;4.40;;
74375;SDS011;62812;55.188;61.302;2022-12-04T09:58:48;7.47;;;4.32;;
74375;SDS011;62812;55.188;61.302;2022-12-04T10:01:20;7.10;;;4.18;;
74375;SDS011;62812;55.188;61.302;2022-12-04T10:03:48;9.00;;;5.63;;
74375;SDS011;62812;55.188;61.302;2022-12-04T10:06:17;8.27;;;4.10;;
74375;SDS011;62812;55.188;61.302;2022-12-04T10:08:49;7.03;;;4.65;;
74375;SDS011;62812;55.188;61.302;2022-12-04T10:11:21;7.72;;;4.40;;
74375;SDS011;62812;55.188;61.302;2022-12-04T10:14:00;10.73;;;6.47;;
74375;SDS011;62812;55.188;61.302;2022-12-04T10:16:38;11.05;;;7.20;;
74375;SDS011;62812;55.188;61.302;2022-12-04T10:19:22;9.02;;;6.68;;
74375;SDS011;62812;55.188;61.302;2022-12-04T10:22:02;10.52;;;7.40;;
74375;SDS011;62812;55.188;61.302;2022-12-04T10:24:39;10.70;;;6.60;;
74375;SDS011;62812;55.188;61.302;2022-12-04T10:27:10;9.82;;;6.47;;
74375;SDS011;62812;55.188;61.302;2022-12-04T10:29:40;11.23;;;7.60;;
74375;SDS011;62812;55.188;61.302;2022-12-04T10:32:14;11.02;;;5.85;;
74375;SDS011;62812;55.188;61.302;2022-12-04T10:34:45;10.45;;;6.72;;
74375;SDS011;62812;55.188;61.302;2022-12-04T10:37:16;12.30;;;7.03;;
74375;SDS011;62812;55.188;61.302;2022-12-04T10:39:43;9.60;;;5.68;;
74375;SDS011;62812;55.188;61.302;2022-12-04T10:42:18;7.20;;;5.60;;
74375;SDS011;62812;55.188;61.302;2022-12-04T10:44:50;9.27;;;6.63;;
74375;SDS011;62812;55.188;61.302;2022-12-04T10:47:16;12.98;;;7.80;;
74375;SDS011;62812;55.188;61.302;2022-12-04T10:49:43;10.82;;;8.15;;
74375;SDS011;62812;55.188;61.302;2022-12-04T10:52:10;11.07;;;4.22;;
74375;SDS011;62812;55.188;61.302;2022-12-04T10:54:44;9.10;;;2.88;;
74375;SDS011;62812;55.188;61.302;2022-12-04T10:57:13;13.02;;;4.70;;
74375;SDS011;62812;55.188;61.302;2022-12-04T10:59:47;8.82;;;3.10;;
74375;SDS011;62812;55.188;61.302;2022-12-04T11:02:18;11.73;;;3.10;;
74375;SDS011;62812;55.188;61.302;2022-12-04T11:04:50;9.50;;;4.10;;
74375;SDS011;62812;55.188;61.302;2022-12-04T11:07:27;8.55;;;4.68;;
74375;SDS011;62812;55.188;61.302;2022-12-04T11:09:57;14.18;;;4.75;;
74375;SDS011;62812;55.188;61.302;2022-12-04T11:12:28;7.93;;;3.60;;
74375;SDS011;62812;55.188;61.302;2022-12-04T11:14:59;7.95;;;4.88;;
74375;SDS011;62812;55.188;61.302;2022-12-04T11:17:26;11.10;;;5.70;;
74375;SDS011;62812;55.188;61.302;2022-12-04T11:19:59;12.20;;;6.25;;
74375;SDS011;62812;55.188;61.302;2022-12-04T11:22:26;9.75;;;6.60;;
74375;SDS011;62812;55.188;61.302;2022-12-04T11:24:54;11.57;;;6.82;;
74375;SDS011;62812;55.188;61.302;2022-12-04T11:27:24;10.23;;;7.03;;
74375;SDS011;62812;55.188;61.302;2022-12-04T11:29:56;18.02;;;8.45;;
74375;SDS011;62812;55.188;61.302;2022-12-04T11:32:26;14.43;;;9.63;;
74375;SDS011;62812;55.188;61.302;2022-12-04T11:34:56;10.18;;;8.15;;
74375;SDS011;62812;55.188;61.302;2022-12-04T11:37:26;12.50;;;7.50;;
74375;SDS011;62812;55.188;61.302;2022-12-04T11:39:56;9.10;;;6.70;;
74375;SDS011;62812;55.188;61.302;2022-12-04T11:42:26;8.57;;;6.90;;
74375;SDS011;62812;55.188;61.302;2022-12-04T11:45:16;11.68;;;9.30;;
74375;SDS011;62812;55.188;61.302;2022-12-04T11:48:12;15.15;;;8.25;;
74375;SDS011;62812;55.188;61.302;2022-12-04T11:50:42;14.40;;;11.15;;
74375;SDS011;62812;55.188;61.302;2022-12-04T11:53:14;11.73;;;9.00;;
74375;SDS011;62812;55.188;61.302;2022-12-04T11:55:49;12.00;;;7.45;;
74375;SDS011;62812;55.188;61.302;2022-12-04T11:58:36;9.88;;;7.18;;
74375;SDS011;62812;55.188;61.302;2022-12-04T12:01:17;16.15;;;11.00;;
74375;SDS011;62812;55.188;61.302;2022-12-04T12:03:55;13.40;;;10.13;;
74375;SDS011;62812;55.188;61.302;2022-12-04T12:06:33;11.10;;;7.30;;
74375;SDS011;62812;55.188;61.302;2022-12-04T12:09:06;11.80;;;7.15;;
74375;SDS011;62812;55.188;61.302;2022-12-04T12:11:48;10.35;;;7.97;;
74375;SDS011;62812;55.188;61.302;2022-12-04T12:14:23;11.07;;;8.10;;
74375;SDS011;62812;55.188;61.302;2022-12-04T12:17:02;13.70;;;10.27;;
74375;SDS011;62812;55.188;61.302;2022-12-04T12:19:39;11.85;;;7.68;;
74375;SDS011;62812;55.188;61.302;2022-12-04T12:22:20;10.35;;;7.90;;
74375;SDS011;62812;55.188;61.302;2022-12-04T12:24:54;17.17;;;7.70;;
74375;SDS011;62812;55.188;61.302;2022-12-04T12:27:34;8.50;;;7.07;;
74375;SDS011;62812;55.188;61.302;2022-12-04T12:30:13;13.52;;;8.07;;
74375;SDS011;62812;55.188;61.302;2022-12-04T12:32:50;11.18;;;7.20;;
74375;SDS011;62812;55.188;61.302;2022-12-04T12:35:26;10.73;;;7.07;;
74375;SDS011;62812;55.188;61.302;2022-12-04T12:37:58;8.48;;;6.45;;
74375;SDS011;62812;55.188;61.302;2022-12-04T12:40:31;12.88;;;8.48;;
74375;SDS011;62812;55.188;61.302;2022-12-04T12:43:04;8.05;;;6.18;;
74375;SDS011;62812;55.188;61.302;2022-12-04T12:45:38;8.18;;;5.97;;
74375;SDS011;62812;55.188;61.302;2022-12-04T12:48:13;15.38;;;8.38;;
74375;SDS011;62812;55.188;61.302;2022-12-04T12:50:48;8.13;;;2.85;;
74375;SDS011;62812;55.188;61.302;2022-12-04T12:53:18;10.70;;;3.28;;
74375;SDS011;62812;55.188;61.302;2022-12-04T12:55:59;4.55;;;1.40;;
74375;SDS011;62812;55.188;61.302;2022-12-04T12:58:43;11.38;;;3.67;;
74375;SDS011;62812;55.188;61.302;2022-12-04T13:01:14;4.45;;;2.83;;
74375;SDS011;62812;55.188;61.302;2022-12-04T13:06:18;11.68;;;8.82;;
74375;SDS011;62812;55.188;61.302;2022-12-04T13:08:53;9.40;;;6.32;;
74375;SDS011;62812;55.188;61.302;2022-12-04T13:11:27;13.85;;;8.43;;
74375;SDS011;62812;55.188;61.302;2022-12-04T13:13:57;11.20;;;3.47;;
74375;SDS011;62812;55.188;61.302;2022-12-04T13:16:26;6.45;;;2.63;;
74375;SDS011;62812;55.188;61.302;2022-12-04T13:18:59;7.90;;;2.22;;
74375;SDS011;62812;55.188;61.302;2022-12-04T13:21:34;9.48;;;4.13;;
74375;SDS011;62812;55.188;61.302;2022-12-04T13:24:19;4.30;;;2.30;;
74375;SDS011;62812;55.188;61.302;2022-12-04T13:26:55;8.25;;;4.10;;
74375;SDS011;62812;55.188;61.302;2022-12-04T13:29:43;8.65;;;5.43;;
74375;SDS011;62812;55.188;61.302;2022-12-04T13:32:30;7.07;;;4.72;;
74375;SDS011;62812;55.188;61.302;2022-12-04T13:35:18;10.75;;;5.68;;
74375;SDS011;62812;55.188;61.302;2022-12-04T13:37:56;8.80;;;5.30;;
74375;SDS011;62812;55.188;61.302;2022-12-04T13:40:39;7.80;;;5.75;;
74375;SDS011;62812;55.188;61.302;2022-12-04T13:43:15;11.45;;;7.32;;
74375;SDS011;62812;55.188;61.302;2022-12-04T13:45:48;10.85;;;5.72;;
74375;SDS011;62812;55.188;61.302;2022-12-04T13:48:25;12.55;;;7.53;;
74375;SDS011;62812;55.188;61.302;2022-12-04T13:50:59;10.18;;;5.25;;
74375;SDS011;62812;55.188;61.302;2022-12-04T13:53:28;9.05;;;7.07;;
74375;SDS011;62812;55.188;61.302;2022-12-04T13:55:57;10.13;;;6.35;;
74375;SDS011;62812;55.188;61.302;2022-12-04T13:58:25;10.68;;;5.68;;
74375;SDS011;62812;55.188;61.302;2022-12-04T14:01:00;9.48;;;6.13;;
74375;SDS011;62812;55.188;61.302;2022-12-04T14:03:30;9.50;;;5.30;;
74375;SDS011;62812;55.188;61.302;2022-12-04T14:05:59;10.57;;;7.85;;
74375;SDS011;62812;55.188;61.302;2022-12-04T14:08:32;7.10;;;4.95;;
74375;SDS011;62812;55.188;61.302;2022-12-04T14:11:04;11.70;;;6.03;;
74375;SDS011;62812;55.188;61.302;2022-12-04T14:13:41;11.48;;;6.03;;
74375;SDS011;62812;55.188;61.302;2022-12-04T14:16:22;9.23;;;5.10;;
74375;SDS011;62812;55.188;61.302;2022-12-04T14:18:51;9.18;;;5.80;;
74375;SDS011;62812;55.188;61.302;2022-12-04T14:21:19;10.07;;;5.40;;
74375;SDS011;62812;55.188;61.302;2022-12-04T14:23:46;9.23;;;5.60;;
74375;SDS011;62812;55.188;61.302;2022-12-04T14:26:21;12.88;;;5.65;;
74375;SDS011;62812;55.188;61.302;2022-12-04T14:28:50;8.85;;;5.53;;
74375;SDS011;62812;55.188;61.302;2022-12-04T14:31:22;11.88;;;4.40;;
74375;SDS011;62812;55.188;61.302;2022-12-04T14:33:56;7.25;;;2.03;;
74375;SDS011;62812;55.188;61.302;2022-12-04T14:36:25;7.95;;;2.45;;
74375;SDS011;62812;55.188;61.302;2022-12-04T14:39:01;7.70;;;3.67;;
74375;SDS011;62812;55.188;61.302;2022-12-04T14:41:32;5.63;;;3.05;;
74375;SDS011;62812;55.188;61.302;2022-12-04T14:43:59;6.95;;;4.35;;
74375;SDS011;62812;55.188;61.302;2022-12-04T14:46:29;8.57;;;5.07;;
74375;SDS011;62812;55.188;61.302;2022-12-04T14:49:05;7.45;;;5.50;;
74375;SDS011;62812;55.188;61.302;2022-12-04T14:51:40;10.52;;;5.28;;
74375;SDS011;62812;55.188;61.302;2022-12-04T14:54:17;6.93;;;4.25;;
74375;SDS011;62812;55.188;61.302;2022-12-04T14:56:54;8.35;;;4.78;;
74375;SDS011;62812;55.188;61.302;2022-12-04T14:59:32;8.25;;;4.53;;
74375;SDS011;62812;55.188;61.302;2022-12-04T15:02:08;10.10;;;5.72;;